sensor_id;sensor_type;location;lat;lon;timestamp;P1;durP1;ratioP1;P2;durP2;ratioP2
62153;SDS011;48140;45.486;9.226;2023-03-01T00:00:39;21.40;;;12.82;;
62153;SDS011;48140;45.486;9.226;2023-03-01T00:03:05;21.50;;;12.80;;
62153;SDS011;48140;45.486;9.226;2023-03-01T00:05:31;21.40;;;12.55;;
62153;SDS011;48140;45.486;9.226;2023-03-01T00:07:57;22.02;;;12.38;;
62153;SDS011;48140;45.486;9.226;2023-03-01T00:10:23;23.10;;;13.60;;
62153;SDS011;48140;45.486;9.226;2023-03-01T00:12:48;20.75;;;12.00;;
62153;SDS011;48140;45.486;9.226;2023-03-01T00:15:14;23.75;;;13.05;;
62153;SDS011;48140;45.486;9.226;2023-03-01T00:17:40;19.70;;;11.82;;
62153;SDS011;48140;45.486;9.226;2023-03-01T00:20:05;22.77;;;12.35;;
62153;SDS011;48140;45.486;9.226;2023-03-01T00:22:35;20.67;;;12.43;;
62153;SDS011;48140;45.486;9.226;2023-03-01T00:25:01;21.05;;;12.43;;
62153;SDS011;48140;45.486;9.226;2023-03-01T00:27:27;20.80;;;12.20;;
62153;SDS011;48140;45.486;9.226;2023-03-01T00:29:53;23.60;;;13.65;;
62153;SDS011;48140;45.486;9.226;2023-03-01T00:32:19;22.15;;;12.57;;
62153;SDS011;48140;45.486;9.226;2023-03-01T00:34:44;20.83;;;12.23;;
62153;SDS011;48140;45.486;9.226;2023-03-01T00:37:19;23.50;;;12.13;;
62153;SDS011;48140;45.486;9.226;2023-03-01T00:39:48;20.90;;;12.10;;
62153;SDS011;48140;45.486;9.226;2023-03-01T00:42:14;19.55;;;10.70;;
62153;SDS011;48140;45.486;9.226;2023-03-01T00:44:40;19.27;;;11.77;;
62153;SDS011;48140;45.486;9.226;2023-03-01T00:47:06;19.77;;;12.55;;
62153;SDS011;48140;45.486;9.226;2023-03-01T00:49:31;21.17;;;12.55;;
62153;SDS011;48140;45.486;9.226;2023-03-01T00:51:57;18.50;;;11.77;;
62153;SDS011;48140;45.486;9.226;2023-03-01T00:54:22;27.75;;;12.48;;
62153;SDS011;48140;45.486;9.226;2023-03-01T00:56:48;21.05;;;11.93;;
62153;SDS011;48140;45.486;9.226;2023-03-01T00:59:14;22.55;;;11.93;;
62153;SDS011;48140;45.486;9.226;2023-03-01T01:01:39;21.27;;;11.75;;
62153;SDS011;48140;45.486;9.226;2023-03-01T01:04:06;26.70;;;12.02;;
62153;SDS011;48140;45.486;9.226;2023-03-01T01:06:36;19.90;;;11.65;;
62153;SDS011;48140;45.486;9.226;2023-03-01T01:09:04;22.10;;;11.80;;
62153;SDS011;48140;45.486;9.226;2023-03-01T01:11:31;18.90;;;11.05;;
62153;SDS011;48140;45.486;9.226;2023-03-01T01:13:58;17.42;;;11.30;;
62153;SDS011;48140;45.486;9.226;2023-03-01T01:16:25;19.75;;;11.30;;
62153;SDS011;48140;45.486;9.226;2023-03-01T01:18:52;22.52;;;11.75;;
62153;SDS011;48140;45.486;9.226;2023-03-01T01:21:19;20.27;;;11.05;;
62153;SDS011;48140;45.486;9.226;2023-03-01T01:23:46;19.92;;;11.32;;
62153;SDS011;48140;45.486;9.226;2023-03-01T01:26:13;20.30;;;12.52;;
62153;SDS011;48140;45.486;9.226;2023-03-01T01:28:44;21.13;;;11.80;;
62153;SDS011;48140;45.486;9.226;2023-03-01T01:31:11;28.88;;;12.38;;
62153;SDS011;48140;45.486;9.226;2023-03-01T01:33:37;17.15;;;10.77;;
62153;SDS011;48140;45.486;9.226;2023-03-01T01:36:03;24.77;;;11.80;;
62153;SDS011;48140;45.486;9.226;2023-03-01T01:38:30;19.38;;;10.90;;
62153;SDS011;48140;45.486;9.226;2023-03-01T01:40:56;23.00;;;11.65;;
62153;SDS011;48140;45.486;9.226;2023-03-01T01:43:23;19.83;;;11.95;;
62153;SDS011;48140;45.486;9.226;2023-03-01T01:46:00;20.45;;;11.40;;
62153;SDS011;48140;45.486;9.226;2023-03-01T01:48:34;19.48;;;11.05;;
62153;SDS011;48140;45.486;9.226;2023-03-01T01:51:14;21.90;;;12.23;;
62153;SDS011;48140;45.486;9.226;2023-03-01T01:53:44;21.10;;;11.90;;
62153;SDS011;48140;45.486;9.226;2023-03-01T01:56:16;22.50;;;11.98;;
62153;SDS011;48140;45.486;9.226;2023-03-01T01:58:43;19.58;;;11.43;;
62153;SDS011;48140;45.486;9.226;2023-03-01T02:01:10;20.58;;;11.88;;
62153;SDS011;48140;45.486;9.226;2023-03-01T02:11:22;22.77;;;11.77;;
62153;SDS011;48140;45.486;9.226;2023-03-01T02:13:48;23.40;;;11.52;;
62153;SDS011;48140;45.486;9.226;2023-03-01T02:16:15;21.45;;;11.15;;
62153;SDS011;48140;45.486;9.226;2023-03-01T02:18:42;22.60;;;12.27;;
62153;SDS011;48140;45.486;9.226;2023-03-01T02:21:13;18.35;;;10.77;;
62153;SDS011;48140;45.486;9.226;2023-03-01T02:23:51;19.10;;;10.57;;
62153;SDS011;48140;45.486;9.226;2023-03-01T02:26:19;19.77;;;10.88;;
62153;SDS011;48140;45.486;9.226;2023-03-01T02:28:50;19.23;;;11.60;;
62153;SDS011;48140;45.486;9.226;2023-03-01T02:31:18;17.10;;;11.25;;
62153;SDS011;48140;45.486;9.226;2023-03-01T02:34:03;21.83;;;11.75;;
62153;SDS011;48140;45.486;9.226;2023-03-01T02:36:34;25.60;;;11.02;;
62153;SDS011;48140;45.486;9.226;2023-03-01T02:39:07;20.05;;;11.40;;
62153;SDS011;48140;45.486;9.226;2023-03-01T02:41:39;24.58;;;11.85;;
62153;SDS011;48140;45.486;9.226;2023-03-01T02:44:07;21.45;;;12.60;;
62153;SDS011;48140;45.486;9.226;2023-03-01T02:46:33;19.48;;;11.43;;
62153;SDS011;48140;45.486;9.226;2023-03-01T02:48:59;21.10;;;12.43;;
62153;SDS011;48140;45.486;9.226;2023-03-01T02:51:45;31.02;;;12.88;;
62153;SDS011;48140;45.486;9.226;2023-03-01T02:54:28;20.92;;;11.80;;
62153;SDS011;48140;45.486;9.226;2023-03-01T02:57:01;18.70;;;11.27;;
62153;SDS011;48140;45.486;9.226;2023-03-01T02:59:29;21.15;;;11.73;;
62153;SDS011;48140;45.486;9.226;2023-03-01T03:01:59;18.95;;;11.20;;
62153;SDS011;48140;45.486;9.226;2023-03-01T03:04:26;23.45;;;11.45;;
62153;SDS011;48140;45.486;9.226;2023-03-01T03:06:51;24.15;;;11.60;;
62153;SDS011;48140;45.486;9.226;2023-03-01T03:09:17;24.52;;;12.55;;
62153;SDS011;48140;45.486;9.226;2023-03-01T03:11:43;19.98;;;11.00;;
62153;SDS011;48140;45.486;9.226;2023-03-01T03:14:10;22.90;;;12.18;;
62153;SDS011;48140;45.486;9.226;2023-03-01T03:16:41;23.80;;;12.68;;
62153;SDS011;48140;45.486;9.226;2023-03-01T03:19:08;20.98;;;12.07;;
62153;SDS011;48140;45.486;9.226;2023-03-01T03:21:34;18.40;;;10.55;;
62153;SDS011;48140;45.486;9.226;2023-03-01T03:24:00;23.75;;;11.23;;
62153;SDS011;48140;45.486;9.226;2023-03-01T03:26:26;20.52;;;12.20;;
62153;SDS011;48140;45.486;9.226;2023-03-01T03:28:52;20.23;;;11.38;;
62153;SDS011;48140;45.486;9.226;2023-03-01T03:31:18;23.23;;;11.77;;
62153;SDS011;48140;45.486;9.226;2023-03-01T03:33:43;19.95;;;11.50;;
62153;SDS011;48140;45.486;9.226;2023-03-01T03:36:09;23.63;;;11.90;;
62153;SDS011;48140;45.486;9.226;2023-03-01T03:38:42;20.08;;;11.93;;
62153;SDS011;48140;45.486;9.226;2023-03-01T03:41:09;19.63;;;11.45;;
62153;SDS011;48140;45.486;9.226;2023-03-01T03:43:35;18.73;;;11.52;;
62153;SDS011;48140;45.486;9.226;2023-03-01T03:46:03;19.23;;;11.07;;
62153;SDS011;48140;45.486;9.226;2023-03-01T03:48:35;19.20;;;10.68;;
62153;SDS011;48140;45.486;9.226;2023-03-01T03:51:03;20.05;;;9.93;;
62153;SDS011;48140;45.486;9.226;2023-03-01T03:53:31;19.10;;;10.80;;
62153;SDS011;48140;45.486;9.226;2023-03-01T03:55:58;25.48;;;12.32;;
62153;SDS011;48140;45.486;9.226;2023-03-01T03:58:24;17.33;;;10.82;;
62153;SDS011;48140;45.486;9.226;2023-03-01T04:00:51;18.85;;;10.75;;
62153;SDS011;48140;45.486;9.226;2023-03-01T04:03:20;23.77;;;11.40;;
62153;SDS011;48140;45.486;9.226;2023-03-01T04:05:47;15.95;;;9.45;;
62153;SDS011;48140;45.486;9.226;2023-03-01T04:08:15;19.25;;;10.75;;
62153;SDS011;48140;45.486;9.226;2023-03-01T04:10:45;21.33;;;11.13;;
62153;SDS011;48140;45.486;9.226;2023-03-01T04:13:14;18.58;;;10.07;;
62153;SDS011;48140;45.486;9.226;2023-03-01T04:15:42;18.30;;;9.60;;
62153;SDS011;48140;45.486;9.226;2023-03-01T04:18:08;22.25;;;9.98;;
62153;SDS011;48140;45.486;9.226;2023-03-01T04:20:36;19.35;;;9.65;;
62153;SDS011;48140;45.486;9.226;2023-03-01T04:23:06;19.08;;;10.00;;
62153;SDS011;48140;45.486;9.226;2023-03-01T04:25:50;19.02;;;10.40;;
62153;SDS011;48140;45.486;9.226;2023-03-01T04:28:27;15.18;;;9.40;;
62153;SDS011;48140;45.486;9.226;2023-03-01T04:30:55;14.68;;;8.77;;
62153;SDS011;48140;45.486;9.226;2023-03-01T04:33:22;13.93;;;8.27;;
62153;SDS011;48140;45.486;9.226;2023-03-01T04:35:48;17.02;;;9.70;;
62153;SDS011;48140;45.486;9.226;2023-03-01T04:38:14;16.00;;;8.85;;
62153;SDS011;48140;45.486;9.226;2023-03-01T04:40:43;16.15;;;8.75;;
62153;SDS011;48140;45.486;9.226;2023-03-01T04:43:10;16.95;;;9.52;;
62153;SDS011;48140;45.486;9.226;2023-03-01T04:45:36;16.42;;;9.50;;
62153;SDS011;48140;45.486;9.226;2023-03-01T04:48:02;16.58;;;8.80;;
62153;SDS011;48140;45.486;9.226;2023-03-01T04:50:29;27.25;;;8.18;;
62153;SDS011;48140;45.486;9.226;2023-03-01T04:52:55;20.83;;;8.80;;
62153;SDS011;48140;45.486;9.226;2023-03-01T04:55:23;14.90;;;8.25;;
62153;SDS011;48140;45.486;9.226;2023-03-01T04:57:53;12.10;;;7.20;;
62153;SDS011;48140;45.486;9.226;2023-03-01T05:00:19;13.63;;;7.75;;
62153;SDS011;48140;45.486;9.226;2023-03-01T05:02:46;11.85;;;6.65;;
62153;SDS011;48140;45.486;9.226;2023-03-01T05:05:28;13.75;;;7.85;;
62153;SDS011;48140;45.486;9.226;2023-03-01T05:07:55;12.52;;;7.63;;
62153;SDS011;48140;45.486;9.226;2023-03-01T05:10:22;17.45;;;8.35;;
62153;SDS011;48140;45.486;9.226;2023-03-01T05:12:48;14.93;;;7.72;;
62153;SDS011;48140;45.486;9.226;2023-03-01T05:15:13;12.65;;;7.07;;
62153;SDS011;48140;45.486;9.226;2023-03-01T05:17:39;13.55;;;7.82;;
62153;SDS011;48140;45.486;9.226;2023-03-01T05:20:05;12.07;;;7.53;;
62153;SDS011;48140;45.486;9.226;2023-03-01T05:22:35;16.10;;;7.32;;
62153;SDS011;48140;45.486;9.226;2023-03-01T05:25:01;11.82;;;6.97;;
62153;SDS011;48140;45.486;9.226;2023-03-01T05:27:27;11.68;;;6.85;;
62153;SDS011;48140;45.486;9.226;2023-03-01T05:29:52;10.55;;;6.70;;
62153;SDS011;48140;45.486;9.226;2023-03-01T05:32:18;12.38;;;6.57;;
62153;SDS011;48140;45.486;9.226;2023-03-01T05:34:43;14.60;;;7.45;;
62153;SDS011;48140;45.486;9.226;2023-03-01T05:37:11;11.55;;;7.07;;
62153;SDS011;48140;45.486;9.226;2023-03-01T05:39:37;10.02;;;6.07;;
62153;SDS011;48140;45.486;9.226;2023-03-01T05:42:03;12.73;;;6.85;;
62153;SDS011;48140;45.486;9.226;2023-03-01T05:44:28;12.48;;;6.72;;
62153;SDS011;48140;45.486;9.226;2023-03-01T05:46:55;11.90;;;5.97;;
62153;SDS011;48140;45.486;9.226;2023-03-01T05:49:23;9.68;;;6.25;;
62153;SDS011;48140;45.486;9.226;2023-03-01T05:51:50;11.32;;;5.78;;
62153;SDS011;48140;45.486;9.226;2023-03-01T05:54:17;12.05;;;6.72;;
62153;SDS011;48140;45.486;9.226;2023-03-01T05:56:44;9.98;;;5.57;;
62153;SDS011;48140;45.486;9.226;2023-03-01T05:59:10;16.15;;;5.88;;
62153;SDS011;48140;45.486;9.226;2023-03-01T06:01:38;11.85;;;5.18;;
62153;SDS011;48140;45.486;9.226;2023-03-01T06:04:03;8.90;;;5.55;;
62153;SDS011;48140;45.486;9.226;2023-03-01T06:06:29;9.02;;;5.45;;
62153;SDS011;48140;45.486;9.226;2023-03-01T06:08:58;10.68;;;6.07;;
62153;SDS011;48140;45.486;9.226;2023-03-01T06:11:24;10.00;;;5.75;;
62153;SDS011;48140;45.486;9.226;2023-03-01T06:13:51;10.55;;;5.78;;
62153;SDS011;48140;45.486;9.226;2023-03-01T06:16:47;11.43;;;5.68;;
62153;SDS011;48140;45.486;9.226;2023-03-01T06:19:13;13.80;;;5.80;;
62153;SDS011;48140;45.486;9.226;2023-03-01T06:21:38;9.77;;;5.60;;
62153;SDS011;48140;45.486;9.226;2023-03-01T06:38:56;10.00;;;5.75;;
62153;SDS011;48140;45.486;9.226;2023-03-01T07:02:26;9.13;;;5.85;;
62153;SDS011;48140;45.486;9.226;2023-03-01T07:08:16;11.50;;;5.40;;
62153;SDS011;48140;45.486;9.226;2023-03-01T07:20:36;9.63;;;5.78;;
62153;SDS011;48140;45.486;9.226;2023-03-01T07:34:42;11.52;;;4.88;;
62153;SDS011;48140;45.486;9.226;2023-03-01T08:12:33;13.77;;;5.25;;
62153;SDS011;48140;45.486;9.226;2023-03-01T08:32:32;9.18;;;5.43;;
62153;SDS011;48140;45.486;9.226;2023-03-01T08:35:25;11.80;;;6.20;;
62153;SDS011;48140;45.486;9.226;2023-03-01T08:38:27;12.23;;;6.85;;
62153;SDS011;48140;45.486;9.226;2023-03-01T08:41:01;14.43;;;7.50;;
62153;SDS011;48140;45.486;9.226;2023-03-01T08:43:33;15.93;;;7.78;;
62153;SDS011;48140;45.486;9.226;2023-03-01T08:46:49;17.20;;;8.15;;
62153;SDS011;48140;45.486;9.226;2023-03-01T08:49:25;14.60;;;8.68;;
62153;SDS011;48140;45.486;9.226;2023-03-01T08:51:57;22.88;;;9.00;;
62153;SDS011;48140;45.486;9.226;2023-03-01T08:54:23;14.25;;;8.60;;
62153;SDS011;48140;45.486;9.226;2023-03-01T08:57:02;13.77;;;7.90;;
62153;SDS011;48140;45.486;9.226;2023-03-01T08:59:28;18.13;;;8.05;;
62153;SDS011;48140;45.486;9.226;2023-03-01T09:02:09;16.45;;;7.78;;
62153;SDS011;48140;45.486;9.226;2023-03-01T09:04:42;13.45;;;8.38;;
62153;SDS011;48140;45.486;9.226;2023-03-01T09:25:20;17.38;;;8.02;;
62153;SDS011;48140;45.486;9.226;2023-03-01T09:32:13;12.00;;;7.45;;
62153;SDS011;48140;45.486;9.226;2023-03-01T09:35:23;13.32;;;8.45;;
62153;SDS011;48140;45.486;9.226;2023-03-01T09:37:56;19.15;;;9.68;;
62153;SDS011;48140;45.486;9.226;2023-03-01T09:48:23;14.82;;;7.95;;
62153;SDS011;48140;45.486;9.226;2023-03-01T09:50:55;22.73;;;8.68;;
62153;SDS011;48140;45.486;9.226;2023-03-01T10:10:32;13.18;;;7.88;;
62153;SDS011;48140;45.486;9.226;2023-03-01T10:38:24;16.45;;;7.97;;
62153;SDS011;48140;45.486;9.226;2023-03-01T11:06:58;17.25;;;8.48;;
62153;SDS011;48140;45.486;9.226;2023-03-01T11:12:14;14.48;;;7.80;;
62153;SDS011;48140;45.486;9.226;2023-03-01T11:16:25;16.13;;;8.15;;
62153;SDS011;48140;45.486;9.226;2023-03-01T11:22:11;13.90;;;7.43;;
62153;SDS011;48140;45.486;9.226;2023-03-01T11:35:44;13.70;;;8.20;;
62153;SDS011;48140;45.486;9.226;2023-03-01T13:19:10;21.92;;;9.50;;
62153;SDS011;48140;45.486;9.226;2023-03-01T14:40:52;15.55;;;8.73;;
62153;SDS011;48140;45.486;9.226;2023-03-01T14:43:26;15.10;;;9.60;;
62153;SDS011;48140;45.486;9.226;2023-03-01T14:45:53;19.33;;;10.77;;
62153;SDS011;48140;45.486;9.226;2023-03-01T14:48:20;20.45;;;9.57;;
62153;SDS011;48140;45.486;9.226;2023-03-01T14:53:42;19.05;;;9.07;;
62153;SDS011;48140;45.486;9.226;2023-03-01T14:56:15;18.92;;;9.95;;
62153;SDS011;48140;45.486;9.226;2023-03-01T14:58:52;16.30;;;9.57;;
62153;SDS011;48140;45.486;9.226;2023-03-01T15:01:29;17.60;;;9.35;;
62153;SDS011;48140;45.486;9.226;2023-03-01T15:03:58;18.63;;;8.35;;
62153;SDS011;48140;45.486;9.226;2023-03-01T15:06:26;18.33;;;9.52;;
62153;SDS011;48140;45.486;9.226;2023-03-01T15:16:34;16.42;;;9.60;;
62153;SDS011;48140;45.486;9.226;2023-03-01T15:19:06;17.10;;;8.70;;
62153;SDS011;48140;45.486;9.226;2023-03-01T15:36:58;18.17;;;9.75;;
62153;SDS011;48140;45.486;9.226;2023-03-01T15:42:07;18.55;;;9.95;;
62153;SDS011;48140;45.486;9.226;2023-03-01T15:44:38;16.48;;;8.77;;
62153;SDS011;48140;45.486;9.226;2023-03-01T15:49:53;17.35;;;8.98;;
62153;SDS011;48140;45.486;9.226;2023-03-01T15:52:27;16.95;;;9.82;;
62153;SDS011;48140;45.486;9.226;2023-03-01T15:55:00;17.27;;;9.50;;
62153;SDS011;48140;45.486;9.226;2023-03-01T15:57:28;24.52;;;10.82;;
62153;SDS011;48140;45.486;9.226;2023-03-01T16:25:50;21.02;;;11.07;;
62153;SDS011;48140;45.486;9.226;2023-03-01T16:28:19;19.38;;;9.35;;
62153;SDS011;48140;45.486;9.226;2023-03-01T16:33:24;16.30;;;9.27;;
62153;SDS011;48140;45.486;9.226;2023-03-01T16:35:50;19.92;;;10.10;;
62153;SDS011;48140;45.486;9.226;2023-03-01T16:38:21;19.15;;;9.50;;
62153;SDS011;48140;45.486;9.226;2023-03-01T16:40:49;19.98;;;9.52;;
62153;SDS011;48140;45.486;9.226;2023-03-01T16:43:16;19.27;;;9.55;;
62153;SDS011;48140;45.486;9.226;2023-03-01T16:45:44;20.60;;;9.18;;
62153;SDS011;48140;45.486;9.226;2023-03-01T16:48:11;17.70;;;9.55;;
62153;SDS011;48140;45.486;9.226;2023-03-01T16:50:38;19.48;;;9.75;;
62153;SDS011;48140;45.486;9.226;2023-03-01T16:53:05;18.05;;;9.82;;
62153;SDS011;48140;45.486;9.226;2023-03-01T16:55:31;17.90;;;9.25;;
62153;SDS011;48140;45.486;9.226;2023-03-01T16:57:58;16.80;;;8.35;;
62153;SDS011;48140;45.486;9.226;2023-03-01T17:00:28;15.88;;;8.35;;
62153;SDS011;48140;45.486;9.226;2023-03-01T17:03:18;14.80;;;8.20;;
62153;SDS011;48140;45.486;9.226;2023-03-01T17:06:05;15.05;;;8.65;;
62153;SDS011;48140;45.486;9.226;2023-03-01T17:08:38;21.02;;;8.43;;
62153;SDS011;48140;45.486;9.226;2023-03-01T17:11:15;16.35;;;9.50;;
62153;SDS011;48140;45.486;9.226;2023-03-01T17:13:46;13.82;;;7.63;;
62153;SDS011;48140;45.486;9.226;2023-03-01T17:29:15;15.48;;;8.45;;
62153;SDS011;48140;45.486;9.226;2023-03-01T17:31:43;21.42;;;10.07;;
62153;SDS011;48140;45.486;9.226;2023-03-01T17:34:09;13.27;;;8.68;;
62153;SDS011;48140;45.486;9.226;2023-03-01T17:36:35;23.08;;;9.10;;
62153;SDS011;48140;45.486;9.226;2023-03-01T17:39:08;15.52;;;8.77;;
62153;SDS011;48140;45.486;9.226;2023-03-01T17:41:40;19.73;;;9.18;;
62153;SDS011;48140;45.486;9.226;2023-03-01T17:44:42;19.48;;;9.55;;
62153;SDS011;48140;45.486;9.226;2023-03-01T17:47:08;20.88;;;8.10;;
62153;SDS011;48140;45.486;9.226;2023-03-01T17:49:40;15.77;;;9.13;;
62153;SDS011;48140;45.486;9.226;2023-03-01T17:52:39;16.77;;;9.43;;
62153;SDS011;48140;45.486;9.226;2023-03-01T18:23:33;16.42;;;9.25;;
62153;SDS011;48140;45.486;9.226;2023-03-01T18:26:05;13.55;;;8.68;;
62153;SDS011;48140;45.486;9.226;2023-03-01T18:35:23;19.85;;;9.05;;
62153;SDS011;48140;45.486;9.226;2023-03-01T18:42:16;16.70;;;8.38;;
62153;SDS011;48140;45.486;9.226;2023-03-01T18:44:28;12.43;;;8.20;;
62153;SDS011;48140;45.486;9.226;2023-03-01T18:47:32;15.57;;;7.97;;
62153;SDS011;48140;45.486;9.226;2023-03-01T18:55:37;13.00;;;7.75;;
62153;SDS011;48140;45.486;9.226;2023-03-01T18:58:04;12.10;;;7.63;;
62153;SDS011;48140;45.486;9.226;2023-03-01T19:00:33;13.90;;;8.27;;
62153;SDS011;48140;45.486;9.226;2023-03-01T19:02:59;14.23;;;8.30;;
62153;SDS011;48140;45.486;9.226;2023-03-01T19:05:27;12.77;;;8.20;;
62153;SDS011;48140;45.486;9.226;2023-03-01T19:07:52;19.33;;;9.43;;
62153;SDS011;48140;45.486;9.226;2023-03-01T19:10:18;13.05;;;8.05;;
62153;SDS011;48140;45.486;9.226;2023-03-01T19:12:44;11.23;;;8.43;;
62153;SDS011;48140;45.486;9.226;2023-03-01T19:15:10;12.32;;;8.07;;
62153;SDS011;48140;45.486;9.226;2023-03-01T19:17:36;12.85;;;7.97;;
62153;SDS011;48140;45.486;9.226;2023-03-01T19:54:57;10.90;;;6.20;;
62153;SDS011;48140;45.486;9.226;2023-03-01T20:10:50;8.55;;;5.82;;
62153;SDS011;48140;45.486;9.226;2023-03-01T20:17:15;9.65;;;5.70;;
62153;SDS011;48140;45.486;9.226;2023-03-01T20:23:15;9.77;;;6.32;;
62153;SDS011;48140;45.486;9.226;2023-03-01T20:25:50;17.13;;;6.25;;
62153;SDS011;48140;45.486;9.226;2023-03-01T20:29:02;13.77;;;7.63;;
62153;SDS011;48140;45.486;9.226;2023-03-01T20:39:20;11.65;;;7.10;;
62153;SDS011;48140;45.486;9.226;2023-03-01T20:55:53;13.15;;;7.30;;
62153;SDS011;48140;45.486;9.226;2023-03-01T20:58:28;14.07;;;7.95;;
62153;SDS011;48140;45.486;9.226;2023-03-01T21:04:27;10.73;;;7.18;;
62153;SDS011;48140;45.486;9.226;2023-03-01T21:06:54;12.93;;;7.72;;
62153;SDS011;48140;45.486;9.226;2023-03-01T21:09:20;14.52;;;8.05;;
62153;SDS011;48140;45.486;9.226;2023-03-01T21:11:48;14.68;;;7.55;;
62153;SDS011;48140;45.486;9.226;2023-03-01T21:14:16;12.43;;;7.50;;
62153;SDS011;48140;45.486;9.226;2023-03-01T21:16:42;10.25;;;7.47;;
62153;SDS011;48140;45.486;9.226;2023-03-01T21:19:09;13.32;;;7.20;;
62153;SDS011;48140;45.486;9.226;2023-03-01T21:21:35;12.15;;;7.32;;
62153;SDS011;48140;45.486;9.226;2023-03-01T21:24:05;11.27;;;7.43;;
62153;SDS011;48140;45.486;9.226;2023-03-01T21:26:43;10.45;;;6.55;;
62153;SDS011;48140;45.486;9.226;2023-03-01T21:29:14;12.30;;;8.07;;
62153;SDS011;48140;45.486;9.226;2023-03-01T21:31:43;10.65;;;6.78;;
62153;SDS011;48140;45.486;9.226;2023-03-01T21:34:31;11.05;;;6.97;;
62153;SDS011;48140;45.486;9.226;2023-03-01T21:37:03;12.00;;;7.50;;
62153;SDS011;48140;45.486;9.226;2023-03-01T21:39:30;10.85;;;7.13;;
62153;SDS011;48140;45.486;9.226;2023-03-01T21:42:46;9.23;;;6.13;;
62153;SDS011;48140;45.486;9.226;2023-03-01T21:45:19;10.93;;;7.65;;
62153;SDS011;48140;45.486;9.226;2023-03-01T21:47:45;12.00;;;7.90;;
62153;SDS011;48140;45.486;9.226;2023-03-01T21:50:11;12.32;;;7.13;;
62153;SDS011;48140;45.486;9.226;2023-03-01T21:52:40;10.48;;;7.38;;
62153;SDS011;48140;45.486;9.226;2023-03-01T21:55:09;10.88;;;6.85;;
62153;SDS011;48140;45.486;9.226;2023-03-01T21:57:37;11.85;;;7.28;;
62153;SDS011;48140;45.486;9.226;2023-03-01T22:00:10;10.82;;;7.07;;
62153;SDS011;48140;45.486;9.226;2023-03-01T22:02:37;10.75;;;7.05;;
62153;SDS011;48140;45.486;9.226;2023-03-01T22:05:12;11.10;;;7.75;;
62153;SDS011;48140;45.486;9.226;2023-03-01T22:07:41;11.45;;;7.05;;
62153;SDS011;48140;45.486;9.226;2023-03-01T22:10:39;13.82;;;7.35;;
62153;SDS011;48140;45.486;9.226;2023-03-01T22:13:10;10.50;;;6.57;;
62153;SDS011;48140;45.486;9.226;2023-03-01T22:15:39;10.23;;;7.55;;
62153;SDS011;48140;45.486;9.226;2023-03-01T22:18:14;14.82;;;7.97;;
62153;SDS011;48140;45.486;9.226;2023-03-01T22:20:49;12.07;;;7.72;;
62153;SDS011;48140;45.486;9.226;2023-03-01T22:23:19;11.73;;;7.50;;
62153;SDS011;48140;45.486;9.226;2023-03-01T22:25:48;12.60;;;7.80;;
62153;SDS011;48140;45.486;9.226;2023-03-01T22:28:17;10.20;;;7.03;;
62153;SDS011;48140;45.486;9.226;2023-03-01T22:30:44;11.32;;;7.53;;
62153;SDS011;48140;45.486;9.226;2023-03-01T22:33:10;10.02;;;7.68;;
62153;SDS011;48140;45.486;9.226;2023-03-01T22:35:39;12.48;;;7.70;;
62153;SDS011;48140;45.486;9.226;2023-03-01T22:38:06;12.07;;;7.75;;
62153;SDS011;48140;45.486;9.226;2023-03-01T22:40:32;12.25;;;8.32;;
62153;SDS011;48140;45.486;9.226;2023-03-01T22:42:58;12.90;;;7.85;;
62153;SDS011;48140;45.486;9.226;2023-03-01T22:45:34;12.63;;;7.55;;
62153;SDS011;48140;45.486;9.226;2023-03-01T22:48:15;11.18;;;6.85;;
62153;SDS011;48140;45.486;9.226;2023-03-01T22:54:18;9.40;;;6.93;;
62153;SDS011;48140;45.486;9.226;2023-03-01T23:00:45;11.25;;;7.00;;
62153;SDS011;48140;45.486;9.226;2023-03-01T23:03:17;14.10;;;7.47;;
62153;SDS011;48140;45.486;9.226;2023-03-01T23:06:22;10.18;;;6.65;;
62153;SDS011;48140;45.486;9.226;2023-03-01T23:08:53;9.45;;;6.18;;
62153;SDS011;48140;45.486;9.226;2023-03-01T23:15:18;9.80;;;6.10;;
62153;SDS011;48140;45.486;9.226;2023-03-01T23:18:13;11.55;;;6.32;;
62153;SDS011;48140;45.486;9.226;2023-03-01T23:21:10;10.32;;;7.18;;
62153;SDS011;48140;45.486;9.226;2023-03-01T23:29:46;9.60;;;6.32;;
62153;SDS011;48140;45.486;9.226;2023-03-01T23:32:18;11.45;;;7.70;;
62153;SDS011;48140;45.486;9.226;2023-03-01T23:35:20;11.05;;;7.38;;
62153;SDS011;48140;45.486;9.226;2023-03-01T23:37:50;11.77;;;6.95;;
62153;SDS011;48140;45.486;9.226;2023-03-01T23:42:58;11.30;;;7.10;;
62153;SDS011;48140;45.486;9.226;2023-03-01T23:45:32;11.02;;;7.53;;
62153;SDS011;48140;45.486;9.226;2023-03-01T23:48:44;11.32;;;7.53;;
62153;SDS011;48140;45.486;9.226;2023-03-01T23:51:14;11.65;;;7.90;;
62153;SDS011;48140;45.486;9.226;2023-03-01T23:53:42;13.20;;;8.30;;
62153;SDS011;48140;45.486;9.226;2023-03-01T23:56:40;15.40;;;8.60;;
62153;SDS011;48140;45.486;9.226;2023-03-01T23:59:11;17.67;;;9.52;;
